Flight Track Log - Related Links

Times and Time Zones

All times are in EDT time to prevent confusion due to time zone crossing. See the AXM5242 flight status page for this flight to view local times or setup timezone preferences in your user account.

Time Position Orientation Groundspeed Altitude Reporting Facility
EDT Latitude Longitude Course Direction KTS MPH feet Rate Location/Type
Sat 05:07:15 AM 2.9150 101.9010 61° Northeast 343 395 8,500  Level FlightAware ADS-B
Sat 05:07:55 AM 2.9520 101.9690 61° Northeast 338 389 11,400 3,341 Climbing FlightAware ADS-B
Sat 05:08:43 AM 2.9910 102.0410 62° Northeast 357 411 13,400 2,341 Climbing FlightAware ADS-B
Sat 05:09:17 AM 3.0090 102.0980 72° East 431 496 14,600 1,971 Climbing FlightAware ADS-B
Sat 05:09:53 AM 3.0240 102.1520 74° East 379 436 15,700 1,342 Climbing FlightAware ADS-B
Sat 05:10:33 AM 3.0430 102.2170 74° East 381 438 16,300 1,551 Climbing FlightAware ADS-B
Sat 05:11:22 AM 3.0690 102.3090 74° East 416 479 18,000 1,097 Climbing FlightAware ADS-B
Sat 05:12:06 AM 3.0890 102.3780 74° East 416 479 18,000  Level FlightAware ADS-B
Sat 05:12:42 AM 3.0810 102.3500 254° West 437 503 18,000  Level FlightAware ADS-B
Sat 05:13:16 AM 3.0970 102.4070 74° East 437 503 18,000  Level FlightAware ADS-B
Sat 05:13:52 AM 3.1140 102.4660 74° East 437 503 18,000 6,286 Level FlightAware ADS-B
Sat 05:13:58 AM 3.1630 102.5970 69° East 396 456 22,400 17,250 Climbing FlightAware ADS-B
Sat 05:14:08 AM 3.1790 102.6110 41° Northeast 400 460 22,600 800 Climbing FlightAware ADS-B
Sat 05:14:43 AM 3.1790 102.6110 41° Northeast 420 483 23,000 369 Climbing FlightAware ADS-B
Sat 05:15:13 AM 3.1790 102.6110 41° Northeast 439 505 23,000 490 Level FlightAware ADS-B
Sat 05:15:32 AM 3.3350 102.6720 21° North 447 514 23,400 2,400 Climbing FlightAware ADS-B
Sat 05:15:58 AM 3.1790 102.6110 201° Southwest 426 490 24,800 1,913 Climbing FlightAware ADS-B
Sat 05:16:41 AM 3.3750 102.7820 41° Northeast 424 488 25,600 2,280 Climbing FlightAware ADS-B
Sat 05:16:48 AM 3.3620 102.7390 253° West 407 468 26,700 2,400 Climbing FlightAware ADS-B
Sat 05:17:26 AM 3.3670 102.8870 88° East 419 482 27,400 1,063 Climbing FlightAware ADS-B
Sat 05:18:07 AM 3.3690 102.9590 88° East 424 488 28,100 759 Climbing FlightAware ADS-B
Sat 05:18:45 AM 3.3720 103.0330 88° East 427 491 28,400 686 Climbing FlightAware ADS-B
Sat 05:19:17 AM 3.3740 103.1040 88° East 445 512 28,900 537 Climbing FlightAware ADS-B
Sat 05:19:52 AM 3.3760 103.1790 88° East 443 510 29,000 80 Climbing FlightAware ADS-B
Sat 05:20:32 AM 3.3780 103.2590 89° East 444 511 29,000  Level FlightAware ADS-B
Sat 05:21:09 AM 3.3810 103.3240 87° East 444 511 29,000  Level FlightAware ADS-B
Sat 05:21:45 AM 3.3830 103.3870 88° East 444 511 29,000  Level FlightAware ADS-B
Sat 05:22:22 AM 3.3850 103.4510 88° East 444 511 29,000  Level FlightAware ADS-B
Sat 05:22:58 AM 3.3870 103.5140 88° East 444 511 29,000  Level FlightAware ADS-B
Sat 05:23:34 AM 3.3900 103.5770 87° East 444 511 29,000  Level FlightAware ADS-B
Sat 05:24:11 AM 3.3920 103.6420 88° East 444 511 29,000  Level FlightAware ADS-B
Sat 05:25:22 AM 3.2660 103.8480 121° Southeast 446 513 29,000  Level FlightAware ADS-B
Sat 05:25:56 AM 3.2490 103.9100 105° East 447 514 29,000  Level FlightAware ADS-B
Sat 05:26:32 AM 3.2320 103.9720 105° East 447 514 29,000 65 Level FlightAware ADS-B
Sat 05:27:28 AM 3.1990 104.0900 106° East 443 510 29,100 65 Climbing FlightAware ADS-B
Sat 05:28:04 AM 3.1830 104.1510 105° East 443 510 29,100 -79 Level FlightAware ADS-B
Sat 05:28:44 AM 3.1580 104.2360 106° East 432 497 29,000 -79 Descending FlightAware ADS-B
Sat 05:29:20 AM 3.1420 104.2960 105° East 432 497 29,000  Level FlightAware ADS-B
Sat 05:29:56 AM 3.1180 104.3840 105° East 428 493 29,000  Level FlightAware ADS-B
Sat 05:30:36 AM 3.0980 104.4570 105° East 425 489 29,000  Level FlightAware ADS-B
Sat 05:31:12 AM 3.0770 104.5300 106° East 423 487 29,000  Level FlightAware ADS-B
Sat 05:31:49 AM 3.0590 104.5990 105° East 422 486 29,000  Level FlightAware ADS-B
Sat 05:32:26 AM 3.0390 104.6700 106° East 423 487 29,000  Level FlightAware ADS-B
Sat 05:32:58 AM 3.0230 104.7290 105° East 424 488 29,000  Level FlightAware ADS-B
Sat 05:33:35 AM 3.0030 104.8000 106° East 425 489 29,000  Level FlightAware ADS-B
Sat 05:34:06 AM 2.9870 104.8590 105° East 425 489 29,000  Level FlightAware ADS-B
Sat 05:34:44 AM 2.9700 104.9200 106° East 425 489 29,000  Level FlightAware ADS-B
Sat 05:35:20 AM 2.9550 104.9780 105° East 425 489 29,000  Level FlightAware ADS-B
Sat 05:35:56 AM 2.9390 105.0360 105° East 425 489 29,000  Level FlightAware ADS-B
Sat 05:36:32 AM 2.9100 105.1370 106° East 424 488 29,000  Level FlightAware ADS-B
Sat 05:37:04 AM 2.8940 105.1950 105° East 423 487 29,000  Level FlightAware ADS-B
Sat 05:37:38 AM 2.8760 105.2600 105° East 423 487 29,000  Level FlightAware ADS-B
Sat 05:38:17 AM 2.8560 105.3350 105° East 424 488 29,000  Level FlightAware ADS-B
Sat 05:38:49 AM 2.8390 105.3950 106° East 425 489 29,000  Level FlightAware ADS-B
Sat 05:39:24 AM 2.8200 105.4630 106° East 426 490 29,000  Level FlightAware ADS-B
Sat 05:40:01 AM 2.8020 105.5310 105° East 431 496 29,000  Level FlightAware ADS-B
Sat 05:40:37 AM 2.7820 105.6030 106° East 430 495 29,000  Level FlightAware ADS-B
Sat 05:41:14 AM 2.7630 105.6730 105° East 429 494 29,000  Level FlightAware ADS-B
Sat 05:41:53 AM 2.7420 105.7470 106° East 428 493 29,000  Level FlightAware ADS-B
Sat 05:42:39 AM 2.7210 105.8240 105° East 428 493 29,000  Level FlightAware ADS-B
Sat 05:43:13 AM 2.7000 105.8990 106° East 425 489 29,000  Level FlightAware ADS-B
Sat 05:43:51 AM 2.6800 105.9720 105° East 429 494 29,000  Level FlightAware ADS-B
Sat 05:44:26 AM 2.6620 106.0380 105° East 426 490 29,000  Level FlightAware ADS-B
Sat 05:44:57 AM 2.6460 106.0970 105° East 426 490 29,000  Level FlightAware ADS-B
Sat 05:45:34 AM 2.6260 106.1690 106° East 432 497 29,000  Level FlightAware ADS-B
Sat 05:46:13 AM 2.6050 106.2440 106° East 433 498 29,000  Level FlightAware ADS-B
Sat 05:46:52 AM 2.5880 106.3080 105° East 433 498 29,000  Level FlightAware ADS-B
Sat 05:47:50 AM 2.5530 106.4320 106° East 432 497 29,000  Level FlightAware ADS-B
Sat 05:48:39 AM 2.5270 106.5260 105° East 434 499 29,000  Level FlightAware ADS-B
Sat 05:49:06 AM 2.5130 106.5780 105° East 434 499 29,000  Level FlightAware ADS-B
Sat 05:49:56 AM 2.4860 106.6750 106° East 433 498 29,000  Level FlightAware ADS-B
Sat 05:50:32 AM 2.4670 106.7440 105° East 433 498 29,000  Level FlightAware ADS-B
Sat 05:51:03 AM 2.4510 106.8020 105° East 437 503 29,000  Level FlightAware ADS-B
Sat 05:51:39 AM 2.4310 106.8750 105° East 436 502 29,000  Level FlightAware ADS-B
Sat 05:52:12 AM 2.4130 106.9390 106° East 433 498 29,000  Level FlightAware ADS-B
Sat 05:52:50 AM 2.3960 107.0020 105° East 433 498 29,000  Level FlightAware ADS-B
Sat 05:53:26 AM 2.3800 107.0610 105° East 433 498 29,000  Level FlightAware ADS-B
Sat 05:54:02 AM 2.3650 107.1200 104° East 433 498 29,000  Level FlightAware ADS-B
Sat 05:54:38 AM 2.3490 107.1800 105° East 433 498 29,000  Level FlightAware ADS-B
Sat 05:55:09 AM 2.3180 107.2820 107° East 436 502 29,000  Level FlightAware ADS-B
Sat 05:55:44 AM 2.2990 107.3500 106° East 434 499 29,000  Level FlightAware ADS-B
Sat 05:56:18 AM 2.2840 107.4050 105° East 434 499 29,000  Level FlightAware ADS-B
Sat 05:56:54 AM 2.2680 107.4640 105° East 434 499 29,000  Level FlightAware ADS-B
Sat 05:57:30 AM 2.2530 107.5230 104° East 434 499 29,000  Level FlightAware ADS-B
Sat 05:58:06 AM 2.2370 107.5830 105° East 434 499 29,000  Level FlightAware ADS-B
Sat 05:58:42 AM 2.2210 107.6420 105° East 434 499 29,000  Level FlightAware ADS-B
Sat 05:59:19 AM 2.2040 107.7030 106° East 434 499 29,000  Level FlightAware ADS-B
Sat 06:02:00 AM 2.2545 107.9912 80° East  Level Estimated
Sat 06:03:00 AM 2.2732 108.0987 80° East  Level Estimated
Sat 06:03:56 AM 2.2600 108.3010 80° East 427 491 29,000  Level FlightAware ADS-B
Sat 06:04:00 AM 2.2920 108.2061 80° East  Level Estimated
Sat 06:04:29 AM 2.2730 108.3650 79° East 427 491 29,000  Level FlightAware ADS-B
Sat 06:05:05 AM 2.2860 108.4360 80° East 430 495 29,000  Level FlightAware ADS-B
Sat 06:05:41 AM 2.3000 108.5060 79° East 429 494 29,000  Level FlightAware ADS-B
Sat 06:06:21 AM 2.3150 108.5830 79° East 428 493 29,000  Level FlightAware ADS-B
Sat 06:06:57 AM 2.3290 108.6540 79° East 425 489 29,000  Level FlightAware ADS-B
Sat 06:07:33 AM 2.3430 108.7240 79° East 425 489 29,000  Level FlightAware ADS-B
Sat 06:08:22 AM 2.3590 108.8050 79° East 426 490 29,000  Level FlightAware ADS-B
Sat 06:08:57 AM 2.3750 108.8850 79° East 426 490 29,000  Level FlightAware ADS-B
Sat 06:09:31 AM 2.3880 108.9520 79° East 427 491 29,000  Level FlightAware ADS-B
Sat 06:10:05 AM 2.4000 109.0170 80° East 428 493 29,000  Level FlightAware ADS-B
Sat 06:10:40 AM 2.4140 109.0850 78° East 427 491 29,000  Level FlightAware ADS-B
Sat 06:11:22 AM 2.4270 109.1550 79° East 426 490 29,000  Level FlightAware ADS-B
Sat 06:11:56 AM 2.4420 109.2320 79° East 425 489 29,000  Level FlightAware ADS-B
Sat 06:12:33 AM 2.4570 109.3050 78° East 425 489 29,000  Level FlightAware ADS-B
Sat 06:13:07 AM 2.4690 109.3700 80° East 428 493 29,000  Level FlightAware ADS-B
Sat 06:13:41 AM 2.4820 109.4360 79° East 428 493 29,000  Level FlightAware ADS-B
Sat 06:14:18 AM 2.4960 109.5080 79° East 426 490 29,000  Level FlightAware ADS-B
Sat 06:14:53 AM 2.5100 109.5760 78° East 428 493 29,000  Level FlightAware ADS-B
Sat 06:15:29 AM 2.5230 109.6460 79° East 429 494 29,000  Level FlightAware ADS-B
Sat 06:16:03 AM 2.5360 109.7120 79° East 428 493 29,000  Level FlightAware ADS-B
Sat 06:16:39 AM 2.5500 109.7840 79° East 430 495 29,000  Level FlightAware ADS-B
Sat 06:17:19 AM 2.5650 109.8590 79° East 431 496 29,000  Level FlightAware ADS-B
Sat 06:17:57 AM 2.5800 109.9350 79° East 431 496 29,000  Level FlightAware ADS-B
Sat 06:18:31 AM 2.5930 110.0030 79° East 431 496 29,000  Level FlightAware ADS-B
Sat 06:19:06 AM 2.6050 110.0680 80° East 430 495 29,000  Level FlightAware ADS-B
Sat 06:19:39 AM 2.6190 110.1360 78° East 431 496 29,000  Level FlightAware ADS-B
Sat 06:20:16 AM 2.6330 110.2070 79° East 433 498 29,000  Level FlightAware ADS-B
Sat 06:20:49 AM 2.6460 110.2750 79° East 432 497 29,000  Level FlightAware ADS-B
Sat 06:21:25 AM 2.6590 110.3440 79° East 432 497 29,000  Level FlightAware ADS-B
Sat 06:22:01 AM 2.6730 110.4160 79° East 430 495 29,000  Level FlightAware ADS-B
Sat 06:22:36 AM 2.6860 110.4820 79° East 430 495 29,000  Level FlightAware ADS-B
Sat 06:23:09 AM 2.6990 110.5470 79° East 430 495 29,000  Level FlightAware ADS-B
Sat 06:23:45 AM 2.7130 110.6180 79° East 431 496 29,000  Level FlightAware ADS-B
Sat 06:24:20 AM 2.7260 110.6860 79° East 434 499 29,000  Level FlightAware ADS-B
Sat 06:24:52 AM 2.7380 110.7510 80° East 439 505 29,000  Level FlightAware ADS-B
Sat 06:25:30 AM 2.7530 110.8260 79° East 436 502 29,000  Level FlightAware ADS-B
Sat 06:26:06 AM 2.7670 110.8970 79° East 436 502 29,000  Level FlightAware ADS-B
Sat 06:26:37 AM 2.7790 110.9580 79° East 437 503 29,000  Level FlightAware ADS-B
Sat 06:27:11 AM 2.7920 111.0270 79° East 438 504 29,000  Level FlightAware ADS-B
Sat 06:27:59 AM 2.8090 111.1130 79° East 438 504 29,000  Level FlightAware ADS-B
Sat 06:28:33 AM 2.8230 111.1890 80° East 436 502 29,000  Level FlightAware ADS-B
Sat 06:29:05 AM 2.8360 111.2530 79° East 440 506 29,000  Level FlightAware ADS-B
Sat 06:29:44 AM 2.8490 111.3200 79° East 440 506 29,000  Level FlightAware ADS-B
Sat 06:30:18 AM 2.8640 111.3980 79° East 438 504 29,000  Level FlightAware ADS-B
Sat 06:31:04 AM 2.8800 111.4820 79° East 439 505 29,000  Level FlightAware ADS-B
Sat 06:31:40 AM 2.8920 111.5430 79° East 439 505 29,000  Level FlightAware ADS-B
Sat 06:32:16 AM 2.9040 111.6040 79° East 439 505 29,000  Level FlightAware ADS-B
Sat 06:32:53 AM 2.9160 111.6670 79° East 439 505 29,000  Level FlightAware ADS-B
Sat 06:33:29 AM 2.9280 111.7280 79° East 439 505 29,000  Level FlightAware ADS-B
Sat 06:34:06 AM 2.9400 111.7910 79° East 439 505 29,000  Level FlightAware ADS-B
Sat 06:36:00 AM 2.9708 111.9960 81° East  Level Estimated
Sat 06:37:00 AM 2.9869 112.1039 81° East  Level Estimated
Sat 06:38:00 AM 3.0031 112.2118 81° East  Level Estimated
Sat 06:39:00 AM 3.0192 112.3198 81° East  Level Estimated
Sat 06:40:00 AM 3.0354 112.4277 81° East  Level Estimated
Sat 06:41:00 AM 3.0515 112.5356 81° East  Level Estimated
Sat 06:42:00 AM 3.0676 112.6435 81° East  Level Estimated
Sat 06:43:00 AM 3.0837 112.7515 81° East  Level Estimated
Sat 06:44:00 AM 3.0998 112.8594 82° East  Level Estimated
Sat 06:45:00 AM 3.1159 112.9673 82° East  Level Estimated
Sat 06:46:00 AM 3.1239 113.0205 82° East  Level Estimated
Sat 06:47:00 AM 3.1239 113.0205 90° East  Level Estimated
Sat 06:48:00 AM 3.1239 113.0205 90° East  Level Estimated
Sat 06:49:00 AM 3.1239 113.0205 90° East  Level Estimated
Sat 06:50:00 AM 3.1239 113.0205 90° East  Level Estimated
Sat 06:51:00 AM 3.1239 113.0205 90° East  Level Estimated
Sat 06:52:00 AM 3.1239 113.0205 90° East  Level Estimated
Sat 06:53:00 AM 3.1239 113.0205 90° East  Level Estimated
Sat 06:54:00 AM 3.1239 113.0205 90° East  Level Estimated
Sat 06:55:00 AM 3.1239 113.0205 90° East  Level Estimated
Sat 06:56:00 AM 3.1239 113.0205 90° East  Level Estimated
Sat 06:57:00 AM 3.1239 113.0205 90° East  Level Estimated
Sat 06:58:00 AM 3.1239 113.0205 90° East  Level Estimated
Sat 06:59:00 AM 3.1239 113.0205 90° East  Level Estimated
Sat 07:00:00 AM 3.1239 113.0205 90° East  Level Estimated
Sat 07:01:00 AM 3.1239 113.0205 90° East  Level Estimated
Sat 07:02:00 AM 3.1239 113.0205 90° East  Level Estimated
Sat 07:03:00 AM 3.1239 113.0205 90° East  Level Estimated
Sat 07:04:00 AM 3.1239 113.0205 90° East  Level Estimated
Sat 07:05:00 AM 3.1239 113.0205 90° East  Level Estimated
Sat 07:06:00 AM 3.1239 113.0205 90° East  Level Estimated
Sat 07:07:00 AM 3.1239 113.0205 90° East  Level Estimated

Login

Don't have an account? Register now (free) for customized features, flight alerts, and more!